Time;durP1;ratioP1;P1;durP2;ratioP2;P2;SDS_P1;SDS_P2;PMS_P1;PMS_P2;Temp;Humidity;BMP_temperature;BMP_pressure;BME280_temperature;BME280_humidity;BME280_pressure;Samples;Min_cycle;Max_cycle;Signal;HPM_P1;HPM_P2
2023/10/21 00:00:30;;;;;;;7.88;7.32;;;;;;;;;;5050731;28;20402;-82
2023/10/21 00:02:56;;;;;;;7.43;6.82;;;;;;;;;;5051207;28;20843;-82
2023/10/21 00:05:22;;;;;;;7.82;7.22;;;;;;;;;;5054962;28;20416;-82
2023/10/21 00:07:48;;;;;;;8.00;7.30;;;;;;;;;;5051378;28;20766;-82
2023/10/21 00:10:14;;;;;;;8.65;8.02;;;;;;;;;;5051795;28;20381;-82
2023/10/21 00:12:40;;;;;;;7.88;7.28;;;;;;;;;;5051721;28;20880;-82
2023/10/21 00:15:07;;;;;;;8.40;7.63;;;;;;;;;;5050429;28;20428;-82
2023/10/21 00:17:33;;;;;;;9.18;8.43;;;;;;;;;;5051624;28;20392;-82
2023/10/21 00:20:00;;;;;;;8.80;7.90;;;;;;;;;;5051195;28;20432;-82
2023/10/21 00:22:26;;;;;;;9.18;8.50;;;;;;;;;;5051904;28;20826;-82
2023/10/21 00:24:52;;;;;;;8.60;7.90;;;;;;;;;;5051534;28;20409;-82
2023/10/21 00:27:18;;;;;;;8.90;8.30;;;;;;;;;;5051337;28;20956;-82
2023/10/21 00:29:44;;;;;;;10.00;9.20;;;;;;;;;;5051775;28;20470;-82
2023/10/21 00:32:10;;;;;;;10.05;9.15;;;;;;;;;;5051632;28;20377;-82
2023/10/21 00:34:39;;;;;;;9.27;8.57;;;;;;;;;;5051706;28;20381;-82
2023/10/21 00:37:07;;;;;;;10.80;9.90;;;;;;;;;;5050368;28;20431;-82
2023/10/21 00:39:34;;;;;;;9.38;8.57;;;;;;;;;;5052142;28;20409;-82
2023/10/21 00:42:00;;;;;;;9.70;9.00;;;;;;;;;;5051684;28;20390;-82
2023/10/21 00:44:26;;;;;;;10.03;9.23;;;;;;;;;;5052331;28;20851;-82
2023/10/21 00:46:52;;;;;;;10.00;9.15;;;;;;;;;;5052135;28;20397;-82
2023/10/21 00:49:18;;;;;;;10.20;9.25;;;;;;;;;;5052306;28;20946;-82
2023/10/21 00:51:46;;;;;;;10.18;9.38;;;;;;;;;;5052129;28;20377;-82
2023/10/21 00:54:12;;;;;;;11.25;10.25;;;;;;;;;;5052091;28;20394;-82
2023/10/21 00:56:38;;;;;;;11.20;10.20;;;;;;;;;;5052011;28;20468;-82
2023/10/21 00:59:04;;;;;;;11.80;10.80;;;;;;;;;;5051924;28;20413;-82
2023/10/21 01:01:30;;;;;;;11.53;10.63;;;;;;;;;;5052149;28;20378;-82
2023/10/21 01:03:56;;;;;;;10.93;10.10;;;;;;;;;;5052272;28;20965;-82
2023/10/21 01:06:22;;;;;;;11.98;10.98;;;;;;;;;;5052072;28;20432;-82
2023/10/21 01:08:48;;;;;;;11.43;10.47;;;;;;;;;;5052122;28;20387;-82
2023/10/21 01:11:14;;;;;;;11.75;10.85;;;;;;;;;;5052320;28;20404;-82
2023/10/21 01:13:43;;;;;;;11.40;10.50;;;;;;;;;;5052545;28;20370;-82
2023/10/21 01:16:09;;;;;;;10.75;9.95;;;;;;;;;;5051812;28;20460;-82
2023/10/21 01:18:35;;;;;;;9.95;9.25;;;;;;;;;;5052152;28;20401;-82
2023/10/21 01:21:02;;;;;;;10.30;9.60;;;;;;;;;;5051795;28;20876;-82
2023/10/21 01:23:29;;;;;;;10.03;9.33;;;;;;;;;;5052002;28;20450;-82
2023/10/21 01:25:55;;;;;;;9.60;8.90;;;;;;;;;;5053607;28;20394;-82
2023/10/21 01:28:21;;;;;;;8.80;8.20;;;;;;;;;;5054906;28;20377;-82
2023/10/21 01:30:47;;;;;;;9.15;8.45;;;;;;;;;;5054750;28;20831;-82
2023/10/21 01:33:13;;;;;;;9.15;8.55;;;;;;;;;;5054987;28;20385;-82
2023/10/21 01:35:39;;;;;;;9.35;8.75;;;;;;;;;;5055108;28;20377;-82
2023/10/21 01:38:05;;;;;;;9.30;8.60;;;;;;;;;;5053552;28;20432;-82
2023/10/21 01:40:31;;;;;;;9.48;8.70;;;;;;;;;;5055015;28;20424;-82
2023/10/21 01:42:57;;;;;;;9.40;8.70;;;;;;;;;;5054942;28;20369;-82
2023/10/21 01:45:23;;;;;;;9.52;8.82;;;;;;;;;;5055206;28;20921;-82
2023/10/21 01:47:49;;;;;;;9.47;8.77;;;;;;;;;;5046059;28;20386;-82
2023/10/21 01:50:15;;;;;;;9.70;9.00;;;;;;;;;;5051774;28;20385;-82
2023/10/21 01:52:41;;;;;;;9.93;9.15;;;;;;;;;;5055556;28;20389;-82
2023/10/21 01:55:08;;;;;;;10.10;9.40;;;;;;;;;;5054604;28;20429;-82
2023/10/21 01:57:35;;;;;;;10.50;9.80;;;;;;;;;;5053613;28;20500;-82
2023/10/21 02:00:04;;;;;;;11.20;10.30;;;;;;;;;;5055296;28;20463;-82
2023/10/21 02:02:30;;;;;;;10.27;9.57;;;;;;;;;;5052374;28;20405;-82
2023/10/21 02:04:56;;;;;;;11.13;10.23;;;;;;;;;;5041164;28;20787;-82
2023/10/21 02:07:23;;;;;;;11.73;10.85;;;;;;;;;;5045105;28;20954;-82
2023/10/21 02:09:48;;;;;;;10.95;10.15;;;;;;;;;;5053728;28;20428;-82
2023/10/21 02:12:15;;;;;;;10.98;10.18;;;;;;;;;;5053141;28;20425;-82
2023/10/21 02:14:41;;;;;;;11.60;10.60;;;;;;;;;;5054253;28;20923;-82
2023/10/21 02:17:07;;;;;;;12.35;11.35;;;;;;;;;;5055283;28;20425;-82
2023/10/21 02:19:33;;;;;;;12.93;11.82;;;;;;;;;;5054688;28;20504;-82
2023/10/21 02:21:59;;;;;;;13.57;12.40;;;;;;;;;;5054965;28;20393;-82
2023/10/21 02:24:25;;;;;;;12.25;11.25;;;;;;;;;;5055029;28;20834;-82
2023/10/21 02:26:52;;;;;;;12.20;11.20;;;;;;;;;;5054154;28;20866;-82
2023/10/21 02:29:18;;;;;;;12.30;11.40;;;;;;;;;;5055189;28;20394;-82
2023/10/21 02:31:44;;;;;;;11.67;10.67;;;;;;;;;;5054635;28;20391;-82
2023/10/21 02:34:10;;;;;;;11.77;10.88;;;;;;;;;;5055013;28;20456;-82
2023/10/21 02:36:36;;;;;;;10.80;10.00;;;;;;;;;;5054575;28;20389;-82
2023/10/21 02:39:07;;;;;;;10.53;9.67;;;;;;;;;;5054223;28;20428;-82
2023/10/21 02:41:33;;;;;;;11.25;10.40;;;;;;;;;;5054878;28;20393;-82
2023/10/21 02:43:58;;;;;;;12.23;11.23;;;;;;;;;;5041952;28;20385;-82
2023/10/21 02:46:24;;;;;;;11.32;10.43;;;;;;;;;;5054315;28;20977;-82
2023/10/21 02:48:51;;;;;;;12.05;11.15;;;;;;;;;;5054706;28;20396;-82
2023/10/21 02:51:17;;;;;;;11.07;10.23;;;;;;;;;;5054580;28;20417;-82
2023/10/21 02:53:44;;;;;;;10.73;9.93;;;;;;;;;;5053191;28;20390;-81
2023/10/21 02:56:10;;;;;;;11.05;10.15;;;;;;;;;;5053859;28;20382;-82
2023/10/21 02:58:37;;;;;;;10.27;9.48;;;;;;;;;;5054353;28;20393;-82
2023/10/21 03:01:04;;;;;;;10.48;9.57;;;;;;;;;;5056544;28;20385;-82
2023/10/21 03:03:30;;;;;;;9.95;9.18;;;;;;;;;;5065458;28;20389;-82
2023/10/21 03:05:56;;;;;;;10.93;10.07;;;;;;;;;;5059851;28;20442;-82
2023/10/21 03:08:22;;;;;;;9.63;8.93;;;;;;;;;;5053226;28;20386;-82
2023/10/21 03:10:48;;;;;;;10.38;9.57;;;;;;;;;;5052500;28;20378;-82
2023/10/21 03:13:14;;;;;;;9.70;9.00;;;;;;;;;;5052431;28;20416;-80
2023/10/21 03:15:40;;;;;;;10.20;9.43;;;;;;;;;;5051723;28;20421;-80
2023/10/21 03:18:06;;;;;;;10.77;9.98;;;;;;;;;;5052542;28;20397;-80
2023/10/21 03:20:33;;;;;;;9.87;9.17;;;;;;;;;;5052177;28;20498;-80
2023/10/21 03:22:59;;;;;;;9.57;8.85;;;;;;;;;;5052284;28;20420;-80
2023/10/21 03:25:25;;;;;;;10.38;9.57;;;;;;;;;;5052607;28;20394;-80
2023/10/21 03:27:51;;;;;;;10.00;9.30;;;;;;;;;;5052443;28;20389;-80
2023/10/21 03:30:17;;;;;;;10.15;9.25;;;;;;;;;;5052739;28;20386;-80
2023/10/21 03:32:43;;;;;;;10.80;10.00;;;;;;;;;;5052521;28;20429;-80
2023/10/21 03:35:09;;;;;;;9.70;9.00;;;;;;;;;;5054072;28;20377;-82
2023/10/21 03:37:35;;;;;;;10.00;9.27;;;;;;;;;;5052404;28;20424;-82
2023/10/21 03:40:05;;;;;;;10.15;9.32;;;;;;;;;;5052627;28;20441;-82
2023/10/21 03:42:31;;;;;;;10.67;9.87;;;;;;;;;;5052567;28;20416;-82
2023/10/21 03:44:57;;;;;;;9.82;9.13;;;;;;;;;;5052729;28;20377;-82
2023/10/21 03:47:23;;;;;;;9.90;9.20;;;;;;;;;;5052869;28;20727;-82
2023/10/21 03:49:49;;;;;;;9.95;9.15;;;;;;;;;;5052084;28;20385;-82
2023/10/21 03:52:15;;;;;;;10.10;9.40;;;;;;;;;;5052643;28;20389;-80
2023/10/21 03:54:42;;;;;;;9.60;8.90;;;;;;;;;;5051851;28;20426;-82
2023/10/21 03:57:07;;;;;;;9.18;8.45;;;;;;;;;;5052096;28;20404;-82
2023/10/21 03:59:33;;;;;;;9.65;8.95;;;;;;;;;;5050419;28;20420;-82
2023/10/21 04:01:59;;;;;;;9.15;8.45;;;;;;;;;;5051891;28;20855;-82
2023/10/21 04:04:25;;;;;;;8.47;7.87;;;;;;;;;;5052926;28;20385;-82
2023/10/21 04:06:51;;;;;;;8.10;7.40;;;;;;;;;;5052900;28;20488;-82
2023/10/21 04:09:17;;;;;;;8.18;7.57;;;;;;;;;;5052995;28;20378;-82
2023/10/21 04:11:43;;;;;;;7.63;7.05;;;;;;;;;;5052645;28;20452;-82
2023/10/21 04:14:10;;;;;;;6.47;6.00;;;;;;;;;;5048309;28;20449;-82
2023/10/21 04:16:36;;;;;;;5.55;5.15;;;;;;;;;;5052817;28;20389;-81
2023/10/21 04:19:02;;;;;;;5.28;4.88;;;;;;;;;;5046735;28;20436;-81
2023/10/21 04:21:28;;;;;;;4.73;4.33;;;;;;;;;;5051828;28;20378;-81
2023/10/21 04:23:54;;;;;;;3.90;3.60;;;;;;;;;;5052084;28;20427;-81
2023/10/21 04:26:20;;;;;;;3.50;3.25;;;;;;;;;;5052290;28;20420;-80
2023/10/21 04:28:46;;;;;;;3.43;3.13;;;;;;;;;;5052927;28;20446;-81
2023/10/21 04:31:12;;;;;;;2.80;2.60;;;;;;;;;;5052378;28;20869;-81
2023/10/21 04:33:38;;;;;;;3.03;2.50;;;;;;;;;;5052725;28;20401;-81
2023/10/21 04:36:04;;;;;;;2.97;2.78;;;;;;;;;;5052818;28;20456;-81
2023/10/21 04:38:30;;;;;;;3.13;2.83;;;;;;;;;;5053347;28;20420;-81
2023/10/21 04:40:56;;;;;;;3.33;3.13;;;;;;;;;;5054570;28;20429;-81
2023/10/21 04:43:22;;;;;;;3.00;2.80;;;;;;;;;;5053738;28;20377;-81
2023/10/21 04:45:48;;;;;;;3.50;3.20;;;;;;;;;;5052875;28;20871;-81
2023/10/21 04:48:15;;;;;;;3.28;2.88;;;;;;;;;;5052954;28;20374;-81
2023/10/21 04:50:41;;;;;;;3.00;2.40;;;;;;;;;;5052897;28;20402;-81
2023/10/21 04:53:07;;;;;;;2.88;2.63;;;;;;;;;;5053100;28;20381;-81
2023/10/21 04:55:33;;;;;;;2.45;2.25;;;;;;;;;;5052644;28;20492;-81
2023/10/21 04:57:59;;;;;;;2.50;2.30;;;;;;;;;;5053158;28;20385;-81
2023/10/21 05:00:25;;;;;;;2.38;2.25;;;;;;;;;;5052555;28;20979;-81
2023/10/21 05:02:51;;;;;;;2.40;2.20;;;;;;;;;;5054014;28;20433;-81
2023/10/21 05:05:17;;;;;;;3.58;2.35;;;;;;;;;;5051836;28;20837;-81
2023/10/21 05:07:43;;;;;;;2.43;2.23;;;;;;;;;;5047833;28;20378;-81
2023/10/21 05:10:09;;;;;;;2.60;2.03;;;;;;;;;;5041923;28;20833;-82
2023/10/21 05:12:35;;;;;;;2.78;2.58;;;;;;;;;;5039407;28;20391;-83
2023/10/21 05:15:01;;;;;;;2.40;2.20;;;;;;;;;;5039282;28;20381;-82
2023/10/21 05:17:27;;;;;;;1.70;1.60;;;;;;;;;;5036380;28;20475;-82
2023/10/21 05:19:53;;;;;;;2.05;1.90;;;;;;;;;;5054089;28;20518;-82
2023/10/21 05:22:19;;;;;;;2.47;1.55;;;;;;;;;;5055855;28;20369;-83
2023/10/21 05:24:45;;;;;;;1.52;1.40;;;;;;;;;;5056659;28;20381;-80
2023/10/21 05:27:11;;;;;;;1.43;1.30;;;;;;;;;;5056488;28;20769;-80
2023/10/21 05:29:37;;;;;;;1.48;1.25;;;;;;;;;;5056496;28;20373;-80
2023/10/21 05:32:03;;;;;;;1.73;1.20;;;;;;;;;;5056187;28;20378;-80
2023/10/21 05:34:30;;;;;;;1.00;1.00;;;;;;;;;;5056385;28;20557;-80
2023/10/21 05:36:56;;;;;;;0.82;0.82;;;;;;;;;;5056708;28;20382;-80
2023/10/21 05:39:22;;;;;;;1.20;1.00;;;;;;;;;;5056901;28;20544;-80
2023/10/21 05:41:48;;;;;;;1.90;0.80;;;;;;;;;;5056347;28;20389;-80
2023/10/21 05:44:14;;;;;;;0.70;0.70;;;;;;;;;;5056576;28;20382;-80
2023/10/21 05:46:40;;;;;;;0.50;0.50;;;;;;;;;;5056045;28;20412;-80
2023/10/21 05:49:06;;;;;;;0.93;0.52;;;;;;;;;;5042735;28;20401;-80
2023/10/21 05:51:32;;;;;;;1.00;0.50;;;;;;;;;;5056463;28;20408;-80
2023/10/21 05:53:58;;;;;;;0.65;0.50;;;;;;;;;;5056347;28;20452;-80
2023/10/21 05:56:24;;;;;;;1.35;0.70;;;;;;;;;;5056359;28;20388;-80
2023/10/21 05:58:50;;;;;;;0.98;0.57;;;;;;;;;;5056172;28;20374;-80
2023/10/21 06:01:16;;;;;;;0.90;0.50;;;;;;;;;;5055268;28;20424;-80
2023/10/21 06:03:43;;;;;;;0.50;0.40;;;;;;;;;;5055749;28;20811;-83
2023/10/21 06:06:09;;;;;;;0.37;0.37;;;;;;;;;;5055837;28;20483;-80
2023/10/21 06:08:35;;;;;;;0.80;0.50;;;;;;;;;;5056248;28;21062;-80
2023/10/21 06:11:01;;;;;;;1.00;0.63;;;;;;;;;;5046364;28;20398;-82
2023/10/21 06:13:27;;;;;;;0.75;0.70;;;;;;;;;;5055130;28;20398;-81
2023/10/21 06:15:53;;;;;;;0.70;0.40;;;;;;;;;;5063194;28;20386;-81
2023/10/21 06:18:20;;;;;;;0.40;0.40;;;;;;;;;;5059984;28;20401;-81
2023/10/21 06:20:46;;;;;;;0.52;0.45;;;;;;;;;;5048221;28;20414;-82
2023/10/21 06:23:12;;;;;;;0.50;0.45;;;;;;;;;;5045854;28;20443;-81
2023/10/21 06:25:39;;;;;;;0.73;0.40;;;;;;;;;;5045203;28;20879;-81
2023/10/21 06:28:05;;;;;;;0.77;0.60;;;;;;;;;;5047512;28;20746;-81
2023/10/21 06:30:31;;;;;;;0.85;0.40;;;;;;;;;;5052934;28;20396;-81
2023/10/21 06:32:57;;;;;;;1.30;0.80;;;;;;;;;;5037791;28;20383;-81
2023/10/21 06:35:23;;;;;;;0.60;0.60;;;;;;;;;;5042494;28;20754;-81
2023/10/21 06:37:49;;;;;;;0.80;0.80;;;;;;;;;;5054449;28;20443;-81
2023/10/21 06:40:15;;;;;;;1.63;0.68;;;;;;;;;;5051228;28;20804;-81
2023/10/21 06:42:41;;;;;;;0.60;0.60;;;;;;;;;;5052886;28;20397;-81
2023/10/21 06:45:08;;;;;;;0.80;0.60;;;;;;;;;;5054163;28;20378;-81
2023/10/21 06:47:34;;;;;;;1.30;0.80;;;;;;;;;;5052194;28;20763;-81
2023/10/21 06:50:00;;;;;;;0.83;0.60;;;;;;;;;;5054302;28;20378;-81
2023/10/21 06:52:26;;;;;;;0.85;0.77;;;;;;;;;;5054398;28;20393;-81
2023/10/21 06:54:53;;;;;;;1.38;0.82;;;;;;;;;;5054358;28;20494;-81
2023/10/21 06:57:22;;;;;;;0.60;0.60;;;;;;;;;;5051996;28;20466;-81
2023/10/21 06:59:48;;;;;;;1.08;0.80;;;;;;;;;;5048272;28;20413;-81
2023/10/21 07:02:14;;;;;;;0.60;0.60;;;;;;;;;;5054502;28;20870;-81
2023/10/21 07:04:40;;;;;;;1.17;0.60;;;;;;;;;;5055176;28;20381;-82
2023/10/21 07:07:06;;;;;;;0.57;0.50;;;;;;;;;;5054754;28;20869;-81
2023/10/21 07:09:32;;;;;;;1.42;0.70;;;;;;;;;;5055000;28;20381;-81
2023/10/21 07:11:58;;;;;;;1.00;0.90;;;;;;;;;;5054495;28;20393;-81
2023/10/21 07:14:24;;;;;;;1.33;1.03;;;;;;;;;;5055370;28;20413;-82
2023/10/21 07:16:50;;;;;;;1.45;1.10;;;;;;;;;;5053710;28;20411;-80
2023/10/21 07:19:16;;;;;;;1.70;0.93;;;;;;;;;;5052830;28;20412;-81
2023/10/21 07:21:43;;;;;;;1.42;1.08;;;;;;;;;;5053725;28;20417;-81
2023/10/21 07:24:12;;;;;;;0.95;0.90;;;;;;;;;;5053065;28;20857;-81
2023/10/21 07:26:38;;;;;;;1.10;1.00;;;;;;;;;;5053438;28;20674;-81
2023/10/21 07:29:07;;;;;;;0.82;0.82;;;;;;;;;;5054176;28;20839;-81
2023/10/21 07:31:33;;;;;;;1.00;0.90;;;;;;;;;;5054576;28;20373;-81
2023/10/21 07:34:00;;;;;;;1.60;1.00;;;;;;;;;;5055405;28;20456;-82
2023/10/21 07:36:26;;;;;;;0.90;0.80;;;;;;;;;;5055203;28;20408;-82
2023/10/21 07:38:52;;;;;;;1.48;0.80;;;;;;;;;;5056789;28;20400;-81
2023/10/21 07:41:19;;;;;;;2.03;0.70;;;;;;;;;;5056187;28;20468;-81
2023/10/21 07:43:45;;;;;;;1.15;0.80;;;;;;;;;;5055196;28;20736;-82
2023/10/21 07:46:11;;;;;;;0.82;0.68;;;;;;;;;;5055433;28;20396;-81
2023/10/21 07:48:37;;;;;;;1.27;0.82;;;;;;;;;;5055792;28;20421;-82
2023/10/21 07:51:03;;;;;;;0.90;0.70;;;;;;;;;;5046178;28;20381;-82
2023/10/21 07:53:29;;;;;;;1.70;0.80;;;;;;;;;;5055722;28;20385;-83
2023/10/21 07:55:55;;;;;;;0.68;0.50;;;;;;;;;;5054394;28;20412;-82
2023/10/21 07:58:23;;;;;;;1.05;0.40;;;;;;;;;;5054715;28;20381;-82
2023/10/21 08:00:48;;;;;;;1.53;0.50;;;;;;;;;;5055998;28;20515;-82
2023/10/21 08:03:14;;;;;;;1.55;0.90;;;;;;;;;;5056310;28;20456;-82
2023/10/21 08:05:41;;;;;;;0.70;0.50;;;;;;;;;;5057231;28;20472;-82
2023/10/21 08:08:07;;;;;;;1.50;0.60;;;;;;;;;;5056103;28;20460;-82
2023/10/21 08:10:33;;;;;;;1.23;0.70;;;;;;;;;;5056479;28;20719;-82
2023/10/21 08:13:00;;;;;;;1.75;0.93;;;;;;;;;;5057982;28;20386;-83
2023/10/21 08:15:27;;;;;;;1.00;0.60;;;;;;;;;;5058849;28;20475;-83
2023/10/21 08:17:53;;;;;;;1.38;0.70;;;;;;;;;;5059327;28;20377;-83
2023/10/21 08:20:19;;;;;;;4.18;1.00;;;;;;;;;;5059198;28;20802;-83
2023/10/21 08:22:45;;;;;;;4.13;1.10;;;;;;;;;;5059514;28;20484;-83
2023/10/21 08:25:11;;;;;;;2.10;0.90;;;;;;;;;;5059583;28;20409;-83
2023/10/21 08:27:37;;;;;;;2.30;1.98;;;;;;;;;;5059321;28;20389;-83
2023/10/21 08:30:04;;;;;;;2.50;0.85;;;;;;;;;;5058605;28;20406;-83
2023/10/21 08:32:30;;;;;;;1.52;0.88;;;;;;;;;;5057213;28;20393;-83
2023/10/21 08:34:56;;;;;;;1.40;0.60;;;;;;;;;;5059370;28;20396;-83
2023/10/21 08:37:22;;;;;;;1.55;0.80;;;;;;;;;;5062066;28;20395;-82
2023/10/21 08:39:48;;;;;;;4.68;3.25;;;;;;;;;;5062796;28;20413;-82
2023/10/21 08:42:17;;;;;;;5.40;4.90;;;;;;;;;;5061607;28;20773;-83
2023/10/21 08:44:43;;;;;;;2.00;0.90;;;;;;;;;;5062474;28;20400;-83
2023/10/21 08:47:11;;;;;;;0.93;0.50;;;;;;;;;;5062149;28;20382;-83
2023/10/21 08:49:37;;;;;;;1.40;0.60;;;;;;;;;;5062612;28;20381;-82
2023/10/21 08:52:03;;;;;;;2.30;1.30;;;;;;;;;;5062676;28;20393;-83
2023/10/21 08:54:31;;;;;;;1.98;0.98;;;;;;;;;;5062323;28;20382;-83
2023/10/21 08:56:58;;;;;;;2.05;0.73;;;;;;;;;;5062319;28;20472;-83
2023/10/21 08:59:24;;;;;;;1.90;0.93;;;;;;;;;;5062158;28;20409;-83
2023/10/21 09:01:50;;;;;;;2.10;0.88;;;;;;;;;;5062674;28;20389;-83
2023/10/21 09:04:17;;;;;;;1.83;0.68;;;;;;;;;;5062095;28;20462;-82
2023/10/21 09:06:58;;;;;;;1.13;0.73;;;;;;;;;;5062712;28;20393;-83
2023/10/21 09:09:26;;;;;;;3.00;0.63;;;;;;;;;;5062604;28;20382;-82
2023/10/21 09:12:11;;;;;;;1.38;0.77;;;;;;;;;;5063339;28;20389;-83
2023/10/21 09:14:55;;;;;;;0.85;0.50;;;;;;;;;;5062757;28;20389;-83
2023/10/21 09:17:21;;;;;;;1.45;0.75;;;;;;;;;;5062133;28;20498;-83
2023/10/21 09:19:54;;;;;;;2.20;0.77;;;;;;;;;;5062473;28;20430;-83
2023/10/21 09:22:21;;;;;;;1.50;0.70;;;;;;;;;;5062502;28;20454;-83
2023/10/21 09:24:47;;;;;;;1.03;0.80;;;;;;;;;;5060971;28;20395;-85
2023/10/21 09:27:16;;;;;;;2.28;1.20;;;;;;;;;;5061250;28;20727;-83
2023/10/21 09:29:43;;;;;;;2.63;1.63;;;;;;;;;;5066216;28;20385;-83
2023/10/21 09:32:09;;;;;;;1.45;0.85;;;;;;;;;;5058297;28;20477;-83
2023/10/21 09:34:35;;;;;;;1.50;0.70;;;;;;;;;;5055940;28;20385;-83
2023/10/21 09:37:02;;;;;;;1.65;0.80;;;;;;;;;;5054954;28;20846;-83
2023/10/21 09:39:32;;;;;;;0.95;0.55;;;;;;;;;;5055066;28;20415;-84
2023/10/21 09:41:59;;;;;;;2.17;0.98;;;;;;;;;;5053412;28;20928;-83
2023/10/21 09:44:25;;;;;;;1.08;0.70;;;;;;;;;;5054514;28;20492;-83
2023/10/21 09:46:51;;;;;;;1.25;0.60;;;;;;;;;;5055586;28;20397;-83
2023/10/21 09:49:19;;;;;;;2.38;0.60;;;;;;;;;;5057069;28;20385;-83
2023/10/21 09:51:47;;;;;;;1.20;0.60;;;;;;;;;;5058749;28;20394;-82
2023/10/21 09:54:14;;;;;;;1.33;0.63;;;;;;;;;;5057762;28;20389;-83
2023/10/21 09:56:40;;;;;;;1.70;0.60;;;;;;;;;;5058857;28;20747;-83
2023/10/21 09:59:07;;;;;;;1.30;0.37;;;;;;;;;;5058110;28;20420;-84
2023/10/21 10:01:37;;;;;;;1.37;0.80;;;;;;;;;;5058233;28;20385;-83
2023/10/21 10:04:05;;;;;;;1.95;0.70;;;;;;;;;;5057541;28;20716;-84
2023/10/21 10:06:32;;;;;;;1.10;0.50;;;;;;;;;;5058027;28;20377;-82
2023/10/21 10:08:58;;;;;;;1.17;0.50;;;;;;;;;;5059782;28;20389;-82
2023/10/21 10:11:25;;;;;;;1.58;0.47;;;;;;;;;;5058655;28;20928;-83
2023/10/21 10:13:51;;;;;;;1.33;0.70;;;;;;;;;;5059899;28;20419;-82
2023/10/21 10:16:24;;;;;;;1.65;0.88;;;;;;;;;;5061171;28;20416;-83
2023/10/21 10:18:50;;;;;;;1.70;0.80;;;;;;;;;;5060496;28;20385;-83
2023/10/21 10:21:20;;;;;;;1.50;0.60;;;;;;;;;;5060027;28;20879;-82
2023/10/21 10:23:50;;;;;;;1.30;0.50;;;;;;;;;;5060242;28;20394;-84
2023/10/21 10:26:27;;;;;;;1.13;0.60;;;;;;;;;;5060430;28;20392;-83
2023/10/21 10:28:53;;;;;;;1.50;0.50;;;;;;;;;;5060546;28;20392;-83
2023/10/21 10:31:21;;;;;;;1.40;0.40;;;;;;;;;;5060940;28;20393;-84
2023/10/21 10:33:55;;;;;;;1.17;0.50;;;;;;;;;;5061347;28;20392;-83
2023/10/21 10:36:30;;;;;;;0.90;0.50;;;;;;;;;;5062581;28;21223;-84
2023/10/21 10:38:56;;;;;;;1.20;0.43;;;;;;;;;;5048423;28;20385;-83
2023/10/21 10:41:22;;;;;;;2.38;0.70;;;;;;;;;;5060735;28;20855;-83
2023/10/21 10:43:54;;;;;;;1.35;0.38;;;;;;;;;;5061426;28;20382;-83
2023/10/21 10:46:21;;;;;;;1.43;0.60;;;;;;;;;;5060016;28;20384;-84
2023/10/21 10:48:47;;;;;;;1.40;0.50;;;;;;;;;;5060856;28;20427;-83
2023/10/21 10:51:17;;;;;;;1.70;0.70;;;;;;;;;;5058123;28;20385;-84
2023/10/21 10:53:47;;;;;;;0.73;0.52;;;;;;;;;;5060229;28;20385;-83
2023/10/21 10:56:19;;;;;;;0.80;0.40;;;;;;;;;;5061269;28;20373;-83
2023/10/21 10:58:46;;;;;;;1.35;0.50;;;;;;;;;;5059867;28;20374;-83
2023/10/21 11:01:25;;;;;;;1.10;0.60;;;;;;;;;;5060984;28;20879;-83
2023/10/21 11:03:57;;;;;;;1.98;0.70;;;;;;;;;;5061165;28;20381;-83
2023/10/21 11:06:44;;;;;;;1.40;0.60;;;;;;;;;;5060209;28;20863;-84
2023/10/21 11:09:16;;;;;;;0.77;0.40;;;;;;;;;;5060071;28;20394;-83
2023/10/21 11:11:50;;;;;;;0.63;0.40;;;;;;;;;;5060467;28;20381;-82
2023/10/21 11:14:17;;;;;;;0.77;0.50;;;;;;;;;;5061126;28;20397;-82
2023/10/21 11:16:48;;;;;;;1.10;0.50;;;;;;;;;;5059460;28;20385;-84
2023/10/21 11:19:17;;;;;;;1.13;0.40;;;;;;;;;;5059429;28;20413;-83
2023/10/21 11:21:48;;;;;;;0.70;0.50;;;;;;;;;;5060451;28;20393;-83
2023/10/21 11:24:14;;;;;;;1.75;0.57;;;;;;;;;;5059872;28;20373;-83
2023/10/21 11:26:41;;;;;;;2.30;1.00;;;;;;;;;;5042303;28;20394;-84
2023/10/21 11:29:07;;;;;;;2.60;1.48;;;;;;;;;;5060290;28;20385;-84
2023/10/21 11:31:36;;;;;;;0.85;0.50;;;;;;;;;;5059421;28;20391;-84
2023/10/21 11:34:29;;;;;;;1.58;0.70;;;;;;;;;;5060419;28;20389;-84
2023/10/21 11:36:56;;;;;;;1.05;0.40;;;;;;;;;;5057372;28;20843;-84
2023/10/21 11:39:24;;;;;;;1.30;0.90;;;;;;;;;;5060936;28;20863;-83
2023/10/21 11:41:52;;;;;;;0.60;0.40;;;;;;;;;;5060896;28;20409;-84
2023/10/21 11:44:26;;;;;;;0.75;0.43;;;;;;;;;;5062165;28;20377;-86
2023/10/21 11:46:56;;;;;;;0.82;0.40;;;;;;;;;;5060388;28;20381;-83
2023/10/21 11:49:23;;;;;;;0.70;0.50;;;;;;;;;;5057992;28;20385;-84
2023/10/21 11:51:52;;;;;;;1.23;0.30;;;;;;;;;;5060138;28;20382;-83
2023/10/21 11:54:33;;;;;;;1.90;0.40;;;;;;;;;;5060337;28;20381;-83
2023/10/21 12:13:37;;;;;;;0.75;0.40;;;;;;;;;;5059767;28;20393;-83
2023/10/21 12:26:56;;;;;;;0.77;0.50;;;;;;;;;;5060611;28;20398;-83
2023/10/21 12:43:18;;;;;;;1.90;0.55;;;;;;;;;;5065928;28;20389;-84
2023/10/21 12:45:44;;;;;;;1.60;0.90;;;;;;;;;;5066192;28;20843;-84
2023/10/21 12:48:10;;;;;;;1.55;1.20;;;;;;;;;;5035927;28;20496;-84
2023/10/21 12:50:36;;;;;;;1.80;0.50;;;;;;;;;;5053753;28;20424;-84
2023/10/21 12:53:02;;;;;;;1.35;0.50;;;;;;;;;;5053377;28;20851;-83
2023/10/21 12:55:28;;;;;;;1.17;0.60;;;;;;;;;;5035244;28;20386;-83
2023/10/21 12:57:54;;;;;;;1.40;0.60;;;;;;;;;;5055034;28;20712;-82
2023/10/21 13:00:21;;;;;;;0.97;0.50;;;;;;;;;;5053193;28;20444;-83
2023/10/21 13:02:47;;;;;;;1.33;0.50;;;;;;;;;;5053564;28;20375;-82
2023/10/21 13:05:13;;;;;;;1.10;0.50;;;;;;;;;;5055567;28;20761;-82
2023/10/21 13:07:40;;;;;;;1.65;0.60;;;;;;;;;;5055508;28;20389;-83
2023/10/21 13:10:09;;;;;;;1.73;0.40;;;;;;;;;;5056434;28;20453;-83
2023/10/21 13:12:39;;;;;;;1.20;0.45;;;;;;;;;;5059760;28;21403;-83
2023/10/21 13:15:12;;;;;;;0.98;0.50;;;;;;;;;;5062833;28;20449;-84
2023/10/21 13:17:38;;;;;;;1.13;0.50;;;;;;;;;;5062783;28;20949;-82
2023/10/21 13:20:05;;;;;;;2.35;0.98;;;;;;;;;;5063593;28;20443;-83
2023/10/21 13:22:34;;;;;;;2.25;1.00;;;;;;;;;;5064976;28;20724;-81
2023/10/21 13:25:07;;;;;;;2.92;0.90;;;;;;;;;;5064545;28;20843;-84
2023/10/21 13:27:33;;;;;;;0.60;0.50;;;;;;;;;;5066966;28;20433;-83
2023/10/21 13:29:59;;;;;;;1.13;0.60;;;;;;;;;;5065429;28;20441;-83
2023/10/21 13:32:27;;;;;;;1.17;0.70;;;;;;;;;;5067642;28;20393;-82
2023/10/21 13:34:54;;;;;;;0.98;0.60;;;;;;;;;;5065676;28;20942;-82
2023/10/21 13:37:20;;;;;;;0.70;0.45;;;;;;;;;;5067773;28;20397;-83
2023/10/21 13:39:47;;;;;;;1.70;0.50;;;;;;;;;;5067750;28;20416;-82
2023/10/21 13:42:13;;;;;;;1.50;0.50;;;;;;;;;;5067725;28;20417;-82
2023/10/21 13:44:39;;;;;;;2.13;0.50;;;;;;;;;;5067633;28;20419;-82
2023/10/21 13:47:08;;;;;;;0.68;0.40;;;;;;;;;;5067200;28;20883;-83
2023/10/21 13:49:40;;;;;;;0.70;0.40;;;;;;;;;;5064641;28;20449;-82
2023/10/21 13:52:06;;;;;;;0.65;0.40;;;;;;;;;;5060952;28;20415;-85
2023/10/21 13:54:32;;;;;;;0.70;0.47;;;;;;;;;;5064944;28;20402;-85
2023/10/21 13:57:03;;;;;;;1.10;0.40;;;;;;;;;;5067573;28;20391;-85
2023/10/21 13:59:29;;;;;;;0.80;0.47;;;;;;;;;;5066970;28;20416;-84
2023/10/21 14:01:55;;;;;;;0.93;0.40;;;;;;;;;;5067219;28;20409;-83
2023/10/21 14:04:22;;;;;;;0.80;0.30;;;;;;;;;;5066873;28;20496;-83
2023/10/21 14:06:48;;;;;;;1.38;0.40;;;;;;;;;;5066730;28;20478;-83
2023/10/21 14:09:23;;;;;;;0.87;0.40;;;;;;;;;;5048442;28;20386;-86
2023/10/21 14:11:50;;;;;;;1.50;0.60;;;;;;;;;;5065635;28;20396;-85
2023/10/21 14:14:17;;;;;;;2.38;0.70;;;;;;;;;;5064659;28;20739;-85
2023/10/21 14:16:43;;;;;;;1.85;0.80;;;;;;;;;;5065640;28;20413;-85
2023/10/21 14:19:09;;;;;;;1.67;1.00;;;;;;;;;;5065374;28;20377;-84
2023/10/21 14:21:35;;;;;;;1.90;0.60;;;;;;;;;;5067538;28;20400;-85
2023/10/21 14:24:02;;;;;;;1.90;0.60;;;;;;;;;;5068227;28;20409;-83
2023/10/21 14:26:28;;;;;;;1.03;0.60;;;;;;;;;;5067913;28;20450;-83
2023/10/21 14:28:57;;;;;;;2.30;0.65;;;;;;;;;;5064687;28;20409;-83
2023/10/21 14:31:31;;;;;;;1.33;0.70;;;;;;;;;;5067891;28;20373;-82
2023/10/21 14:34:00;;;;;;;2.80;2.60;;;;;;;;;;5066014;28;20381;-84
2023/10/21 14:36:29;;;;;;;1.05;0.60;;;;;;;;;;5067212;28;20404;-84
2023/10/21 14:38:57;;;;;;;0.77;0.57;;;;;;;;;;5066556;28;20378;-85
2023/10/21 14:41:23;;;;;;;1.30;0.50;;;;;;;;;;5067143;28;20751;-84
2023/10/21 14:43:49;;;;;;;0.73;0.60;;;;;;;;;;5067917;28;20393;-84
2023/10/21 14:46:23;;;;;;;1.27;0.75;;;;;;;;;;5066385;28;20444;-84
2023/10/21 14:48:49;;;;;;;1.40;0.90;;;;;;;;;;5065519;28;20863;-84
2023/10/21 14:51:16;;;;;;;0.90;0.63;;;;;;;;;;5061342;28;20393;-84
2023/10/21 14:53:43;;;;;;;1.07;0.63;;;;;;;;;;5067496;28;20373;-85
2023/10/21 14:56:09;;;;;;;1.20;0.70;;;;;;;;;;5067952;28;20449;-84
2023/10/21 14:58:35;;;;;;;1.20;0.52;;;;;;;;;;5048754;28;20390;-84
2023/10/21 15:01:02;;;;;;;1.05;0.40;;;;;;;;;;5066101;28;20459;-83
2023/10/21 15:03:28;;;;;;;0.98;0.55;;;;;;;;;;5067554;28;20396;-84
2023/10/21 15:05:54;;;;;;;0.70;0.50;;;;;;;;;;5063898;28;20390;-84
2023/10/21 15:08:22;;;;;;;1.10;0.75;;;;;;;;;;5063539;28;20389;-84
2023/10/21 15:10:48;;;;;;;1.08;0.60;;;;;;;;;;5064137;28;20377;-83
2023/10/21 15:13:14;;;;;;;1.00;0.60;;;;;;;;;;5063412;28;20411;-83
2023/10/21 15:15:42;;;;;;;0.90;0.63;;;;;;;;;;5065702;28;20389;-83
2023/10/21 15:18:08;;;;;;;1.75;0.60;;;;;;;;;;5064019;28;20441;-83
2023/10/21 15:20:34;;;;;;;1.08;0.60;;;;;;;;;;5064168;28;20429;-83